1936 Tropical Cyclone NOT_NAMED (1936045S12152)


IBTrACS version v04r00. Visit IBTrACS website for data access.
Please direct all questions to the IBTrACS Q and A forum

Storm track - Intensity - Wind Radii - Intensity Data - Source Data - All data

Summary Information

Storm ID 1936045S12152
Start Feb 13 23Z
Landfall Feb 17 06Z, Feb 20 12Z
Max Intensity 45 kt (Feb 20 00Z), 950 mb (Feb 19 23Z)
End Feb 22 00Z
ATCF IDs
Track status Best track data.

Storm track plot

Map of storm track

Intensity plots

Map of storm track

Radial wind information

No radial wind information for this storm


Position and Intensity Table

BASIN ISO_TIME_________ NATURE LAT LON WMO PRES BOM PRES DS824 WIND DS824 PRES
degrees north degrees east mb mb kts mb
SP 1936-02-13 23:00:00 NR -11.60 151.80
SP 1936-02-14 00:00:00 TS -11.70 151.72
SP 03:00:00 TS -11.84 151.37
SP 06:00:00 TS -11.98 151.03
SP 09:00:00 TS -12.13 150.69
SP 11:00:00 TS -12.23 150.46
SP 12:00:00 TS -12.29 150.35
SP 15:00:00 TS -12.45 150.03
SP 18:00:00 TS -12.63 149.72
SP 21:00:00 TS -12.83 149.43
SP 23:00:00 TS -12.97 149.25
SP 1936-02-15 00:00:00 TS -13.04 149.16
SP 03:00:00 TS -13.27 148.91
SP 06:00:00 TS -13.51 148.68
SP 09:00:00 TS -13.76 148.46
SP 11:00:00 TS -13.93 148.31
SP 12:00:00 TS -14.02 148.24
SP 15:00:00 TS -14.28 148.02
SP 18:00:00 TS -14.53 147.81
SP 21:00:00 TS -14.77 147.60
SP 23:00:00 TS -14.91 147.48
SP 1936-02-16 00:00:00 TS -14.98 147.42
SP 03:00:00 TS -15.16 147.29
SP 06:00:00 TS -15.31 147.17
SP 09:00:00 TS -15.45 147.06
SP 11:00:00 TS -15.54 146.98
SP 12:00:00 TS -15.59 146.93
SP 15:00:00 TS -15.73 146.78
SP 18:00:00 TS -15.86 146.60
SP 21:00:00 TS -15.97 146.38
SP 23:00:00 TS -16.04 146.21
SP 1936-02-17 00:00:00 TS -16.07 146.11
SP 03:00:00 TS -16.16 145.77
SP 06:00:00 TS -16.24 145.40
SP 09:00:00 TS -16.29 145.02
SP 11:00:00 TS -16.32 144.76
SP 12:00:00 TS -16.33 144.63
SP 15:00:00 TS -16.34 144.22
SP 18:00:00 TS -16.33 143.80
SP 21:00:00 TS -16.31 143.40
SP 23:00:00 TS -16.26 143.15
SP 1936-02-18 00:00:00 TS -16.23 143.04
SP 03:00:00 TS -16.15 142.70
SP 06:00:00 TS -16.06 142.37
SP 09:00:00 TS -16.00 142.01
SP 11:00:00 TS -15.97 141.77
SP 12:00:00 TS -15.96 141.64
SP 14:30:00 TS -15.95 141.29
SP 15:00:00 TS -15.95 141.22
SP 18:00:00 TS -15.96 140.81
SP 21:00:00 TS -15.98 140.42
SP 23:00:00 TS -16.00 140.20
SP 1936-02-19 00:00:00 TS -16.01 140.10
SP 03:00:00 TS -16.03 139.87
SP 06:00:00 TS -16.05 139.69
SP 09:00:00 TS -16.08 139.54
SP 11:00:00 TS -16.10 139.45
SP 12:00:00 TS -16.11 139.39
SP 15:00:00 TS -16.16 139.23
SP 18:00:00 TS -16.21 139.08
SP 21:00:00 TS -16.27 138.92
SP 23:00:00 TS -16.32 138.82 950 950
SP 1936-02-20 00:00:00 TS -16.35 138.76 45 992
SP 03:00:00 TS -16.45 138.59
SP 06:00:00 TS -16.55 138.43
SP 09:00:00 TS -16.65 138.27
SP 11:00:00 TS -16.71 138.17
SP 12:00:00 TS -16.74 138.12
SP 15:00:00 TS -16.80 137.97
SP 18:00:00 TS -16.86 137.83
SP 21:00:00 TS -16.94 137.66
SP 23:00:00 TS -17.01 137.53
SP 23:30:00 TS -17.03 137.50
SP 1936-02-21 00:00:00 TS -17.06 137.46
SP 03:00:00 TS -17.23 137.22
SP 06:00:00 TS -17.45 136.95
SP 09:00:00 TS -17.71 136.65
SP 11:00:00 TS -17.90 136.44
SP 12:00:00 TS -18.00 136.33
SP 15:00:00 TS -18.31 135.99
SP 18:00:00 TS -18.62 135.66
SP 21:00:00 TS -18.94 135.32
SP 23:00:00 TS -19.15 135.08
SP 23:30:00 TS -19.16 135.04
SP 1936-02-22 00:00:00 TS -19.20 135.00

Source Information

Agency Information
USA
TOKYO
CMA
HKO
NEWDELHI
REUNION
BOM IDCKMSTM0S.csv:Line=894:unnamed
NADI
WELLINGTON
DS824 aus_area.dat:86:NOT NAMED
TD9636 cons_worldwide_trop_cyclone_18710101-19891231-006:Line=2079
TD9635
NEUMANN
MLC

All available IBTrACS Data

SEASON BASIN SUBBASIN ISO_TIME_________ NATURE LAT LON WMO PRES WMO AGENCY DIST2LAND LANDFALL IFLAG USA SSHS BOM LAT BOM LON BOM PRES BOM PRES_METHOD DS824 LAT DS824 LON DS824 STAGE DS824 WIND DS824 PRES TD9636 LAT TD9636 LON TD9636 STAGE STORM SPEED STORM DIR
Year degrees north degrees east mb km km 1 degrees north degrees east mb degrees north degrees east kts mb degrees north degrees east kts degrees
1936 SP EA 1936-02-13 23:00:00 NR -11.60 151.80 164 164 __________O___ -1 -11.60 151.80 7 8 219
1936 SP EA 1936-02-14 00:00:00 TS -11.70 151.72 164 154 _________OP___ -1 -11.80 151.80 TC -11.65 151.68 7 7 240
1936 SP EA 03:00:00 TS -11.84 151.37 154 152 _________PP___ -1 -11.92 151.45 TC -11.79 151.32 7 7 247
1936 SP EA 06:00:00 TS -11.98 151.03 159 155 _________PP___ -1 -12.05 151.10 TC -11.93 150.97 7 7 246
1936 SP EA 09:00:00 TS -12.13 150.69 160 160 _________PP___ -1 -12.18 150.75 TC -12.09 150.62 7 7 245
1936 SP EA 11:00:00 TS -12.23 150.46 168 167 _________PO___ -1 -12.27 150.53 TC -12.20 150.40 7 7 245
1936 SP EA 12:00:00 TS -12.29 150.35 179 179 _________PP___ -1 -12.31 150.42 TC -12.26 150.29 7 7 243
1936 SP EA 15:00:00 TS -12.45 150.03 202 202 _________PP___ -1 -12.46 150.09 TC -12.44 149.97 7 7 241
1936 SP EA 18:00:00 TS -12.63 149.72 219 219 _________PP___ -1 -12.62 149.78 TC -12.64 149.66 7 7 237
1936 SP EA 21:00:00 TS -12.83 149.43 250 250 _________PP___ -1 -12.80 149.48 TC -12.85 149.38 7 7 234
1936 SP EA 23:00:00 TS -12.97 149.25 279 279 _________PO___ -1 -12.93 149.29 TC -13.00 149.20 7 7 231
1936 SP EA 1936-02-15 00:00:00 TS -13.04 149.16 279 279 _________OP___ -1 -13.00 149.20 TC -13.08 149.11 7 7 227
1936 SP EA 03:00:00 TS -13.27 148.91 321 321 _________PP___ -1 -13.22 148.94 TC -13.32 148.88 7 7 225
1936 SP EA 06:00:00 TS -13.51 148.68 350 350 _________PP___ -1 -13.45 148.70 TC -13.57 148.65 7 7 222
1936 SP EA 09:00:00 TS -13.76 148.46 370 345 _________PP___ -1 -13.70 148.47 TC -13.83 148.44 7 7 220
1936 SP EA 11:00:00 TS -13.93 148.31 345 341 _________PO___ -1 -13.87 148.33 TC -14.00 148.30 7 7 219
1936 SP EA 12:00:00 TS -14.02 148.24 331 300 _________PP___ -1 -13.95 148.26 TC -14.09 148.22 7 7 220
1936 SP EA 15:00:00 TS -14.28 148.02 300 273 _________PP___ -1 -14.20 148.06 TC -14.36 147.98 7 7 219
1936 SP EA 18:00:00 TS -14.53 147.81 273 242 _________PP___ -1 -14.45 147.87 TC -14.62 147.74 7 6 219
1936 SP EA 21:00:00 TS -14.77 147.60 242 229 _________PP___ -1 -14.68 147.68 TC -14.86 147.53 7 6 220
1936 SP EA 23:00:00 TS -14.91 147.48 229 217 _________PO___ -1 -14.83 147.56 TC -15.00 147.40 7 5 220
1936 SP EA 1936-02-16 00:00:00 TS -14.98 147.42 217 205 _________OP___ -1 -14.90 147.50 TC -15.06 147.35 7 5 217
1936 SP EA 03:00:00 TS -15.16 147.29 204 193 _________PP___ -1 -15.11 147.37 TC -15.21 147.21 7 4 216
1936 SP EA 06:00:00 TS -15.31 147.17 193 182 _________PP___ -1 -15.30 147.25 TC -15.32 147.10 7 4 217
1936 SP EA 09:00:00 TS -15.45 147.06 183 173 _________PP___ -1 -15.48 147.13 TC -15.43 146.98 7 4 220
1936 SP EA 11:00:00 TS -15.54 146.98 173 159 _________PO___ -1 -15.59 147.05 TC -15.50 146.90 7 4 222
1936 SP EA 12:00:00 TS -15.59 146.93 159 146 _________PP___ -1 -15.64 147.01 TC -15.54 146.86 7 4 225
1936 SP EA 15:00:00 TS -15.73 146.78 146 119 _________PP___ -1 -15.79 146.85 TC -15.67 146.71 7 4 230
1936 SP EA 18:00:00 TS -15.86 146.60 119 96 _________PP___ -1 -15.91 146.66 TC -15.80 146.55 7 5 238
1936 SP EA 21:00:00 TS -15.97 146.38 96 75 _________PP___ -1 -16.02 146.41 TC -15.92 146.36 7 5 245
1936 SP EA 23:00:00 TS -16.04 146.21 75 64 _________PO___ -1 -16.08 146.21 TC -16.00 146.20 7 6 249
1936 SP EA 1936-02-17 00:00:00 TS -16.07 146.11 64 32 _________OP___ -1 -16.10 146.10 TC -16.04 146.12 7 7 254
1936 SP EA 03:00:00 TS -16.16 145.77 32 0 _________PP___ -1 -16.16 145.71 TC -16.16 145.83 7 7 256
1936 SP EA 06:00:00 TS -16.24 145.40 0 0 _________OP___ -1 -16.20 145.30 TC -16.27 145.51 7 7 260
1936 SP EA 09:00:00 TS -16.29 145.02 0 0 _________PP___ -1 -16.23 144.89 TC -16.36 145.15 7 7 262
1936 SP EA 11:00:00 TS -16.32 144.76 0 0 _________PO___ -1 -16.24 144.62 TC -16.40 144.90 7 8 265
1936 SP EA 12:00:00 TS -16.33 144.63 0 0 _________PP___ -1 -16.24 144.48 TC -16.42 144.77 7 8 268
1936 SP EA 15:00:00 TS -16.34 144.22 0 0 _________PP___ -1 -16.23 144.06 TC -16.44 144.37 7 8 270
1936 SP EA 18:00:00 TS -16.33 143.80 0 0 _________PP___ -1 -16.22 143.65 TC -16.44 143.96 7 8 272
1936 SP EA 21:00:00 TS -16.31 143.40 0 0 _________PP___ -1 -16.19 143.23 TC -16.42 143.56 7 8 276
1936 SP EA 23:00:00 TS -16.26 143.15 bom 0 0 ______O__PO___ -1 -16.10 143.30 -16.17 142.96 TC -16.40 143.30 7 7 283
1936 SP EA 1936-02-18 00:00:00 TS -16.23 143.04 0 0 ______P__PP___ -1 -16.06 143.19 -16.16 142.83 TC -16.39 143.19 7 7 285
1936 SP EA 03:00:00 TS -16.15 142.70 0 0 ______P__PP___ -1 -15.93 142.84 -16.12 142.43 TC -16.34 142.87 7 7 285
1936 SP EA 06:00:00 TS -16.06 142.37 0 0 ______P__PP___ -1 -15.83 142.49 -16.08 142.04 TC -16.28 142.56 7 7 282
1936 SP EA 09:00:00 TS -16.00 142.01 0 0 ______P__PP___ -1 -15.74 142.13 -16.03 141.67 TC -16.23 142.24 7 7 279
1936 SP EA 11:00:00 TS -15.97 141.77 0 0 ______P__PO___ -1 -15.71 141.88 -16.01 141.43 TC -16.20 142.00 7 7 276
1936 SP EA 12:00:00 TS -15.96 141.64 0 0 ______P__PP___ -1 -15.70 141.74 -15.99 141.31 TC -16.19 141.85 7 8 273
1936 SP EA 14:30:00 TS -15.95 141.29 bom 10 10 ______O__PP___ -1 -15.70 141.40 -15.96 141.03 TC -16.18 141.45 7 8 272
1936 SP EA 15:00:00 TS -15.95 141.22 21 21 ______P__PP___ -1 -15.70 141.33 -15.96 140.98 TC -16.18 141.37 7 8 269
1936 SP EA 18:00:00 TS -15.96 140.81 64 64 ______P__PP___ -1 -15.76 140.89 -15.93 140.66 TC -16.18 140.88 7 8 268
1936 SP EA 21:00:00 TS -15.98 140.42 106 106 ______P__PP___ -1 -15.84 140.46 -15.91 140.37 TC -16.19 140.44 7 7 266
1936 SP EA 23:00:00 TS -16.00 140.20 bom 125 125 ______O__PO___ -1 -15.90 140.20 -15.90 140.19 TC -16.20 140.20 7 6 265
1936 SP EA 1936-02-19 00:00:00 TS -16.01 140.10 135 134 ______P__OP___ -1 -15.92 140.09 -15.90 140.10 TC -16.20 140.12 7 5 265
1936 SP EA 03:00:00 TS -16.03 139.87 134 123 ______P__PP___ -1 -15.96 139.80 -15.91 139.87 TC -16.21 139.95 7 4 264
1936 SP EA 06:00:00 TS -16.05 139.69 123 104 ______P__PP___ -1 -15.99 139.56 -15.92 139.66 TC -16.24 139.85 7 3 261
1936 SP EA 09:00:00 TS -16.08 139.54 104 104 ______P__PP___ -1 -16.02 139.38 -15.94 139.47 TC -16.27 139.77 7 3 258
1936 SP EA 11:00:00 TS -16.10 139.45 99 99 ______P__PO___ -1 -16.04 139.28 -15.96 139.36 TC -16.30 139.70 7 3 256
1936 SP EA 12:00:00 TS -16.11 139.39 99 81 ______P__PP___ -1 -16.05 139.23 -15.97 139.30 TC -16.32 139.64 7 3 254
1936 SP EA 15:00:00 TS -16.16 139.23 81 79 ______P__PP___ -1 -16.08 139.11 -16.01 139.14 TC -16.38 139.45 7 3 252
1936 SP EA 18:00:00 TS -16.21 139.08 79 64 ______P__PP___ -1 -16.11 139.00 -16.06 138.99 TC -16.45 139.25 7 3 248
1936 SP EA 21:00:00 TS -16.27 138.92 64 59 ______P__PP___ -1 -16.16 138.88 -16.12 138.85 TC -16.54 139.04 7 3 245
1936 SP EA 23:00:00 TS -16.32 138.82 950 bom 59 59 ______O__PO___ -1 -16.20 138.80 950 4 -16.17 138.75 TC -16.60 138.90 7 3 243
1936 SP EA 1936-02-20 00:00:00 TS -16.35 138.76 49 44 ______P__OP___ -1 -16.23 138.74 -16.20 138.70 TC 45 992 -16.63 138.84 7 4 240
1936 SP EA 03:00:00 TS -16.45 138.59 44 33 ______P__PP___ -1 -16.31 138.58 -16.29 138.55 TC -16.73 138.66 7 4 238
1936 SP EA 06:00:00 TS -16.55 138.43 33 22 ______P__PP___ -1 -16.41 138.42 -16.40 138.40 TC -16.83 138.49 7 4 237
1936 SP EA 09:00:00 TS -16.65 138.27 22 10 ______P__PP___ -1 -16.51 138.26 -16.50 138.25 TC -16.94 138.31 7 4 237
1936 SP EA 11:00:00 TS -16.71 138.17 10 0 ______P__PO___ -1 -16.57 138.15 -16.57 138.15 TC -17.00 138.20 7 4 239
1936 SP EA 12:00:00 TS -16.74 138.12 bom 0 0 ______O__OP___ -1 -16.60 138.10 -16.60 138.10 TC -17.02 138.15 7 3 245
1936 SP EA 15:00:00 TS -16.80 137.97 0 0 ______P__PP___ -1 -16.66 137.96 -16.66 137.97 TC -17.08 137.99 7 3 247
1936 SP EA 18:00:00 TS -16.86 137.83 0 0 ______P__PP___ -1 -16.72 137.81 -16.72 137.83 TC -17.13 137.83 7 3 245
1936 SP EA 21:00:00 TS -16.94 137.66 0 0 ______P__PP___ -1 -16.80 137.65 -16.79 137.68 TC -17.22 137.64 7 4 241
1936 SP EA 23:00:00 TS -17.01 137.53 0 0 ______P__PO___ -1 -16.88 137.53 -16.86 137.56 TC -17.30 137.50 7 4 237
1936 SP EA 23:30:00 TS -17.03 137.50 bom 0 0 ______O__PP___ -1 -16.90 137.50 -16.88 137.53 TC -17.32 137.46 7 5 234
1936 SP EA 1936-02-21 00:00:00 TS -17.06 137.46 0 0 ______P__OP___ -1 -16.92 137.47 -16.90 137.50 TC -17.35 137.42 7 6 233
1936 SP EA 03:00:00 TS -17.23 137.22 0 0 ______P__PP___ -1 -17.10 137.24 -17.06 137.28 TC -17.54 137.14 7 6 231
1936 SP EA 06:00:00 TS -17.45 136.95 0 0 ______P__PP___ -1 -17.32 136.98 -17.28 137.03 TC -17.76 136.84 7 7 229
1936 SP EA 09:00:00 TS -17.71 136.65 0 0 ______P__PP___ -1 -17.58 136.69 -17.53 136.74 TC -18.02 136.52 7 8 227
1936 SP EA 11:00:00 TS -17.90 136.44 0 0 ______P__PO___ -1 -17.78 136.48 -17.72 136.53 TC -18.20 136.30 7 8 226
1936 SP EA 12:00:00 TS -18.00 136.33 0 0 ______P__PP___ -1 -17.88 136.37 -17.82 136.43 TC -18.29 136.19 7 9 226
1936 SP EA 15:00:00 TS -18.31 135.99 0 0 ______P__PP___ -1 -18.20 136.03 -18.14 136.09 TC -18.59 135.86 7 9 226
1936 SP EA 18:00:00 TS -18.62 135.66 0 0 ______P__PP___ -1 -18.55 135.67 -18.49 135.74 TC -18.89 135.54 7 9 226
1936 SP EA 21:00:00 TS -18.94 135.32 0 0 ______P__PP___ -1 -18.90 135.31 -18.84 135.37 TC -19.19 135.22 7 9 226
1936 SP EA 23:00:00 TS -19.15 135.08 0 0 ______P__PO___ -1 -19.14 135.06 -19.08 135.12 TC -19.40 135.00 7 8 229
1936 SP EA 23:30:00 TS -19.16 135.04 bom 0 0 ______O__P____ -1 -19.20 135.00 -19.14 135.06 TC 7 5 238
1936 SP EA 1936-02-22 00:00:00 TS -19.20 135.00 0 _________O____ -1 -19.20 135.00 TC 7 7 224